createdAt,value
2022-08-04T00:04:03.788Z,98983.56
2022-08-04T00:09:07.959Z,98975.34
2022-08-04T00:14:05.146Z,98987.09
2022-08-04T00:19:04.752Z,98993.13
2022-08-04T00:24:10.751Z,98984.06
2022-08-04T00:29:06.023Z,98981.31
2022-08-04T00:33:58.054Z,98974.72
2022-08-04T00:38:50.746Z,98973.34
2022-08-04T00:43:57.713Z,98969.53
2022-08-04T00:49:01.566Z,98965.97
2022-08-04T00:54:13.510Z,98971.69
2022-08-04T00:59:37.311Z,98965.94
2022-08-04T01:04:28.906Z,98955.56
2022-08-04T01:09:46.576Z,98956.09
2022-08-04T01:15:03.002Z,98971.94
2022-08-04T01:20:12.407Z,98961.81
2022-08-04T01:25:22.757Z,98968.09
2022-08-04T01:30:16.331Z,98969.16
2022-08-04T01:35:54.570Z,98969.69
2022-08-04T01:40:41.490Z,98973.78
2022-08-04T01:45:36.617Z,98970.22
2022-08-04T01:50:35.830Z,98971.84
2022-08-04T01:55:54.407Z,98974.56
2022-08-04T02:00:57.466Z,98973.50
2022-08-04T02:06:03.237Z,98977.59
2022-08-04T02:11:05.079Z,98968.84
2022-08-04T02:16:13.244Z,98977.63
2022-08-04T02:21:05.296Z,98969.44
2022-08-04T02:26:00.746Z,98964.19
2022-08-04T02:31:01.185Z,98971.31
2022-08-04T02:36:02.368Z,98966.66
2022-08-04T02:40:58.864Z,98968.03
2022-08-04T02:45:56.834Z,98963.91
2022-08-04T02:50:49.821Z,98969.66
2022-08-04T02:55:50.879Z,98971.25
2022-08-04T03:00:45.807Z,98986.03
2022-08-04T03:06:01.101Z,98978.38
2022-08-04T03:10:59.156Z,98982.19
2022-08-04T03:16:15.531Z,98982.19
2022-08-04T03:21:25.658Z,98982.19
2022-08-04T03:26:50.354Z,98987.63
2022-08-04T03:31:57.518Z,98991.47
2022-08-04T03:37:04.073Z,98997.50
2022-08-04T03:42:04.108Z,98996.69
2022-08-04T03:47:18.005Z,99002.94
2022-08-04T03:53:02.147Z,99005.94
2022-08-04T03:58:06.727Z,99014.97
2022-08-04T04:03:29.130Z,99007.88
2022-08-04T04:08:45.284Z,99016.84
2022-08-04T04:14:02.586Z,99020.66
2022-08-04T04:19:15.882Z,99024.22
2022-08-04T04:24:32.852Z,99030.47
2022-08-04T04:30:04.035Z,99032.03
2022-08-04T04:35:04.816Z,99030.97
2022-08-04T04:40:18.368Z,99033.16
2022-08-04T04:45:24.930Z,99031.75
2022-08-04T04:50:46.109Z,99037.22
2022-08-04T04:55:48.318Z,99038.88
2022-08-04T05:01:01.454Z,99047.06
2022-08-04T05:06:07.945Z,99048.69
2022-08-04T05:11:40.457Z,99064.00
2022-08-04T05:16:41.592Z,99073.31
2022-08-04T05:21:35.839Z,99077.13
2022-08-04T05:26:38.932Z,99086.97
2022-08-04T05:31:37.997Z,99089.72
2022-08-04T05:36:41.528Z,99086.47
2022-08-04T05:41:46.189Z,99091.16
2022-08-04T05:46:41.493Z,99101.03
2022-08-04T05:51:34.322Z,99110.63
2022-08-04T05:56:26.686Z,99105.72
2022-08-04T06:01:20.305Z,99117.75
2022-08-04T06:06:14.283Z,99121.81
2022-08-04T06:11:09.710Z,99125.09
2022-08-04T06:16:02.752Z,99130.03
2022-08-04T06:20:56.950Z,99141.06
2022-08-04T06:25:55.202Z,99154.47
2022-08-04T06:30:50.157Z,99154.00
2022-08-04T06:35:42.608Z,99150.75
2022-08-04T06:40:35.973Z,99158.28
2022-08-04T06:45:28.538Z,99159.25
2022-08-04T06:51:32.783Z,99169.00
2022-08-04T06:55:34.194Z,99172.81
2022-08-04T07:00:26.861Z,99187.00
2022-08-04T07:05:20.200Z,99171.25
2022-08-04T07:10:12.895Z,99188.03
2022-08-04T07:15:14.364Z,99181.19
2022-08-04T07:20:07.176Z,99182.53
2022-08-04T07:24:59.614Z,99181.53
2022-08-04T07:29:54.220Z,99185.63
2022-08-04T07:34:49.782Z,99197.31
2022-08-04T07:39:48.397Z,99200.44
2022-08-04T07:44:40.608Z,99212.75
2022-08-04T07:49:56.364Z,99224.84
2022-08-04T07:54:45.063Z,99223.31
2022-08-04T07:59:36.866Z,99232.16
2022-08-04T08:04:29.958Z,99244.97
2022-08-04T08:09:22.334Z,99239.63
2022-08-04T08:14:15.213Z,99237.19
2022-08-04T08:19:08.014Z,99237.19
2022-08-04T08:24:00.129Z,99244.22
2022-08-04T08:28:52.163Z,99249.84
2022-08-04T08:33:44.163Z,99257.13
2022-08-04T08:39:07.220Z,99252.22
2022-08-04T08:44:30.027Z,99259.44
2022-08-04T08:50:00.345Z,99258.34
2022-08-04T08:55:00.886Z,99259.53
2022-08-04T09:00:10.438Z,99263.25
2022-08-04T09:05:38.376Z,99270.06
2022-08-04T09:10:51.292Z,99267.75
2022-08-04T09:16:03.192Z,99261.00
2022-08-04T09:21:17.822Z,99267.69
2022-08-04T09:26:27.682Z,99262.59
2022-08-04T09:31:48.654Z,99271.28
2022-08-04T09:36:56.785Z,99262.56
2022-08-04T09:42:04.359Z,99260.28
2022-08-04T09:47:00.188Z,99259.59
2022-08-04T09:51:57.894Z,99265.84
2022-08-04T09:57:31.616Z,99263.00
2022-08-04T10:02:25.733Z,99281.03
2022-08-04T10:07:41.397Z,99267.13
2022-08-04T10:12:52.921Z,99267.59
2022-08-04T10:18:04.083Z,99274.41
2022-08-04T10:23:11.663Z,99277.03
2022-08-04T10:28:09.402Z,99279.94
2022-08-04T10:33:18.550Z,99288.38
2022-08-04T10:38:10.276Z,99295.16
2022-08-04T10:43:22.854Z,99307.06
2022-08-04T10:48:45.584Z,99320.53
2022-08-04T10:53:40.469Z,99324.13
2022-08-04T10:58:47.907Z,99322.84
2022-08-04T11:04:04.035Z,99327.50
2022-08-04T11:08:57.097Z,99336.81
2022-08-04T11:14:00.784Z,99343.78
2022-08-04T11:19:16.505Z,99347.03
2022-08-04T11:24:47.216Z,99340.25
2022-08-04T11:30:06.799Z,99355.06
2022-08-04T11:35:05.614Z,99369.50
2022-08-04T11:40:16.057Z,99370.06
2022-08-04T11:45:15.579Z,99376.03
2022-08-04T11:50:17.534Z,99380.81
2022-08-04T11:55:11.725Z,99384.22
2022-08-04T12:00:10.130Z,99394.69
2022-08-04T12:05:04.889Z,99390.69
2022-08-04T12:10:11.734Z,99390.97
2022-08-04T12:15:15.488Z,99394.81
2022-08-04T12:20:40.342Z,99391.53
2022-08-04T12:25:30.366Z,99400.66
2022-08-04T12:30:58.211Z,99414.69
2022-08-04T12:36:06.244Z,99424.56
2022-08-04T12:40:59.918Z,99422.53
2022-08-04T12:45:55.580Z,99410.28
2022-08-04T12:50:53.942Z,99424.22
2022-08-04T12:56:01.768Z,99425.09
2022-08-04T13:02:07.489Z,99432.88
2022-08-04T13:06:23.351Z,99431.00
2022-08-04T13:11:18.161Z,99434.25
2022-08-04T13:16:13.082Z,99432.81
2022-08-04T13:21:21.332Z,99433.13
2022-08-04T13:26:42.869Z,99437.00
2022-08-04T13:31:35.640Z,99426.03
2022-08-04T13:36:30.211Z,99422.94
2022-08-04T13:41:24.115Z,99428.69
2022-08-04T13:46:27.134Z,99440.03
2022-08-04T13:51:23.699Z,99447.22
2022-08-04T13:56:40.393Z,99442.38
2022-08-04T14:01:35.648Z,99457.66
2022-08-04T14:06:28.287Z,99441.97
2022-08-04T14:12:09.377Z,99435.44
2022-08-04T14:17:02.947Z,99441.25
2022-08-04T14:21:54.686Z,99449.63
2022-08-04T14:26:46.420Z,99446.22
2022-08-04T14:31:54.452Z,99448.19
2022-08-04T14:37:17.990Z,99464.41
2022-08-04T14:42:01.327Z,99449.41
2022-08-04T14:46:55.285Z,99452.03
2022-08-04T14:51:55.120Z,99462.13
2022-08-04T14:56:56.148Z,99458.38
2022-08-04T15:02:00.858Z,99462.06
2022-08-04T15:06:53.657Z,99464.00
2022-08-04T15:11:45.590Z,99458.03
2022-08-04T15:16:37.317Z,99462.88
2022-08-04T15:21:46.043Z,99476.03
2022-08-04T15:26:44.225Z,99481.75
2022-08-04T15:32:06.428Z,99478.72
2022-08-04T15:36:57.837Z,99467.69
2022-08-04T15:42:12.982Z,99478.19
2022-08-04T15:47:12.632Z,99478.31
2022-08-04T15:52:12.119Z,99471.50
2022-08-04T15:57:06.907Z,99475.34
2022-08-04T16:02:32.695Z,99478.38
2022-08-04T16:08:00.015Z,99477.38
2022-08-04T16:12:57.031Z,99468.88
2022-08-04T16:17:49.379Z,99481.88
2022-08-04T16:22:41.234Z,99487.47
2022-08-04T16:27:44.420Z,99483.31
2022-08-04T16:32:47.433Z,99492.44
2022-08-04T16:37:43.094Z,99498.03
2022-08-04T16:42:36.336Z,99495.91
2022-08-04T16:48:00.940Z,99498.97
2022-08-04T16:52:54.758Z,99499.88
2022-08-04T16:57:47.457Z,99505.16
2022-08-04T17:02:39.554Z,99520.09
2022-08-04T17:08:02.257Z,99514.94
2022-08-04T17:14:03.149Z,99522.19
2022-08-04T17:18:34.925Z,99510.72
2022-08-04T17:24:15.111Z,99511.06
2022-08-04T17:28:51.768Z,99516.91
2022-08-04T17:33:54.819Z,99525.72
2022-08-04T17:39:00.089Z,99532.38
2022-08-04T17:44:07.122Z,99537.88
2022-08-04T17:49:19.847Z,99535.97
2022-08-04T17:54:13.185Z,99535.19
2022-08-04T17:59:56.431Z,99531.66
2022-08-04T18:05:06.350Z,99539.91
2022-08-04T18:10:08.726Z,99545.69
2022-08-04T18:15:25.600Z,99547.06
2022-08-04T18:20:32.411Z,99543.47
2022-08-04T18:25:50.377Z,99548.47
2022-08-04T18:30:54.063Z,99556.13
2022-08-04T18:36:34.732Z,99560.53
2022-08-04T18:40:59.253Z,99565.19
2022-08-04T18:51:23.125Z,99578.91
2022-08-04T18:56:20.003Z,99576.72
2022-08-04T19:02:16.076Z,99576.94
2022-08-04T19:06:36.445Z,99583.53
2022-08-04T19:11:38.448Z,99597.16
2022-08-04T19:16:40.992Z,99599.84
2022-08-04T19:22:01.537Z,99599.25
2022-08-04T19:26:49.479Z,99603.03
2022-08-04T19:31:42.011Z,99604.91
2022-08-04T19:36:33.806Z,99608.44
2022-08-04T19:41:26.978Z,99622.59
2022-08-04T19:46:18.970Z,99622.25
2022-08-04T19:51:11.310Z,99625.75
2022-08-04T19:56:03.208Z,99630.31
2022-08-04T20:00:55.490Z,99635.16
2022-08-04T20:05:55.054Z,99636.47
2022-08-04T20:10:51.343Z,99640.25
2022-08-04T20:15:55.444Z,99637.44
2022-08-04T20:20:49.988Z,99646.00
2022-08-04T20:25:43.941Z,99648.13
2022-08-04T20:30:38.934Z,99652.94
2022-08-04T20:35:30.847Z,99655.00
2022-08-04T20:40:22.645Z,99656.53
2022-08-04T20:45:16.718Z,99663.03
2022-08-04T20:50:09.661Z,99671.13
2022-08-04T20:55:01.795Z,99670.09
2022-08-04T20:59:59.890Z,99674.34
2022-08-04T21:04:52.278Z,99680.22
2022-08-04T21:09:50.024Z,99676.66
2022-08-04T21:14:44.127Z,99682.63
2022-08-04T21:19:40.087Z,99678.16
2022-08-04T21:24:36.608Z,99687.13
2022-08-04T21:29:34.693Z,99682.34
2022-08-04T21:34:39.520Z,99677.50
2022-08-04T21:39:32.407Z,99684.16
2022-08-04T21:44:24.519Z,99679.69
2022-08-04T21:49:19.840Z,99675.94
2022-08-04T21:54:14.891Z,99682.66
2022-08-04T21:59:14.301Z,99685.88
2022-08-04T22:04:06.322Z,99695.88
2022-08-04T22:09:00.405Z,99699.50
2022-08-04T22:14:11.646Z,99709.19
2022-08-04T22:19:05.021Z,99710.78
2022-08-04T22:24:00.337Z,99714.00
2022-08-04T22:28:56.105Z,99704.53
2022-08-04T22:33:55.211Z,99706.09
2022-08-04T22:38:56.872Z,99712.59
2022-08-04T22:43:58.430Z,99708.50
2022-08-04T22:48:51.026Z,99713.09
2022-08-04T22:53:48.746Z,99703.16
2022-08-04T22:58:51.270Z,99707.47
2022-08-04T23:03:50.941Z,99714.78
2022-08-04T23:08:48.553Z,99700.09
2022-08-04T23:13:40.441Z,99704.81
2022-08-04T23:18:32.261Z,99699.59
2022-08-04T23:23:24.447Z,99703.88
2022-08-04T23:28:17.791Z,99722.31
2022-08-04T23:33:11.265Z,99716.88
2022-08-04T23:38:30.690Z,99709.41
2022-08-04T23:43:17.875Z,99710.22
2022-08-04T23:48:16.170Z,99702.19
2022-08-04T23:53:11.146Z,99713.22
2022-08-04T23:58:18.569Z,99715.25
